American Integrity — WDD2875 — position and weather

sailwx.info

Track history (hours):
 
Tides and Currents Weather Stations Pressure Air Temp Water Temp Dewpoint Dewpoint Depression Visibility Wind Speed Wind Dir Waves Ship Positions

American Integrity

Owner: American Steamship Company, Williamsville, NY. More information available from US FCC via Universal Licensing System and Coast Guard Vessel Documentation Center.

Last reported at 2014-Oct-20 12:17 UTC. Time now 2014-Oct-23 06:05 UTC.
Position N 44°53' W 086°26'.

; draft 8 m.

Type: Cargo ship. MMSI: 367120990.

Date/timePositionNaut miles runAvg speedWind from/ knotsBaromVisibWave heightAir tempDewpointWater temp
2014-Oct-20 12:17N 44°53' W 086°26'911.8
2014-Oct-20 11:33N 45°01' W 086°22'1211.9
2014-Oct-20 10:33N 45°13' W 086°18'1212.0
2014-Oct-20 09:33N 45°24' W 086°13'1211.8
2014-Oct-20 08:33N 45°35' W 086°08'1010.5
2014-Oct-20 07:33N 45°44' W 085°60'1111.2
2014-Oct-20 06:33N 45°49' W 085°46'1110.7
2014-Oct-20 05:33N 45°54' W 085°32'1111.1
2014-Oct-20 04:33N 45°53' W 085°16'1111.1
2014-Oct-20 03:33N 45°51' W 084°60'1111.3
2014-Oct-20 02:33N 45°49' W 084°44'10 9.7
2014-Oct-20 01:33N 45°52' W 084°30'1211.8
2014-Oct-20 00:33N 45°53' W 084°14'1211.7
2014-Oct-19 23:33N 45°56' W 083°57'66 6.5
2014-Oct-19 13:21N 46°48' W 084°56'1211.9
2014-Oct-19 12:20N 46°53' W 085°12'  
2014-Oct-16 10:07N 46°08' W 084°01'10 9.7
2014-Oct-16 09:04N 45°59' W 083°53'510.5
2014-Oct-16 08:33N 45°55' W 083°58'1212.0
2014-Oct-16 07:33N 45°51' W 084°14'1312.6
2014-Oct-16 06:33N 45°51' W 084°33'1212.4
2014-Oct-16 05:33N 45°50' W 084°50'1312.8
2014-Oct-16 04:33N 45°52' W 085°08'1312.7
2014-Oct-16 03:33N 45°53' W 085°26'1312.6
2014-Oct-16 02:33N 45°52' W 085°44'1312.6
2014-Oct-16 01:34N 45°49' W 086°02'1312.5
2014-Oct-16 00:33N 45°39' W 086°13'1312.4
2014-Oct-15 23:31N 45°29' W 086°24'  
Track history (hours):
 
Tides and Currents Weather Stations Pressure Air Temp Water Temp Dewpoint Dewpoint Depression Visibility Wind Speed Wind Dir Waves Ship Positions

American Integrity

Owner: American Steamship Company, Williamsville, NY. More information available from US FCC via Universal Licensing System and Coast Guard Vessel Documentation Center.

Last reported at 2014-Oct-20 12:17 UTC. Time now 2014-Oct-23 06:05 UTC.
Position N 44°53' W 086°26'.

; draft 8 m.

Type: Cargo ship. MMSI: 367120990.

Date/timePositionNaut miles runAvg speedWind from/ knotsBaromVisibWave heightAir tempDewpointWater temp
2014-Oct-20 12:17N 44°53' W 086°26'911.8
2014-Oct-20 11:33N 45°01' W 086°22'1211.9
2014-Oct-20 10:33N 45°13' W 086°18'1212.0
2014-Oct-20 09:33N 45°24' W 086°13'1211.8
2014-Oct-20 08:33N 45°35' W 086°08'1010.5
2014-Oct-20 07:33N 45°44' W 085°60'1111.2
2014-Oct-20 06:33N 45°49' W 085°46'1110.7
2014-Oct-20 05:33N 45°54' W 085°32'1111.1
2014-Oct-20 04:33N 45°53' W 085°16'1111.1
2014-Oct-20 03:33N 45°51' W 084°60'1111.3
2014-Oct-20 02:33N 45°49' W 084°44'10 9.7
2014-Oct-20 01:33N 45°52' W 084°30'1211.8
2014-Oct-20 00:33N 45°53' W 084°14'1211.7
2014-Oct-19 23:33N 45°56' W 083°57'66 6.5
2014-Oct-19 13:21N 46°48' W 084°56'1211.9
2014-Oct-19 12:20N 46°53' W 085°12'  
2014-Oct-16 10:07N 46°08' W 084°01'10 9.7
2014-Oct-16 09:04N 45°59' W 083°53'510.5
2014-Oct-16 08:33N 45°55' W 083°58'1212.0
2014-Oct-16 07:33N 45°51' W 084°14'1312.6
2014-Oct-16 06:33N 45°51' W 084°33'1212.4
2014-Oct-16 05:33N 45°50' W 084°50'1312.8
2014-Oct-16 04:33N 45°52' W 085°08'1312.7
2014-Oct-16 03:33N 45°53' W 085°26'1312.6
2014-Oct-16 02:33N 45°52' W 085°44'1312.6
2014-Oct-16 01:34N 45°49' W 086°02'1312.5
2014-Oct-16 00:33N 45°39' W 086°13'1312.4
2014-Oct-15 23:31N 45°29' W 086°24'  

Dump ship's entire track history